Time;durP1;ratioP1;P1;durP2;ratioP2;P2;SDS_P1;SDS_P2;PMS_P1;PMS_P2;Temp;Humidity;BMP_temperature;BMP_pressure;BME280_temperature;BME280_humidity;BME280_pressure;Samples;Min_cycle;Max_cycle;Signal;HPM_P1;HPM_P2
2022/07/03 00:01:19;;;;;;;;;15.50;13.75;;;;;27.87;53.49;100992.81;146605;613;46018;-72
2022/07/03 00:04:12;;;;;;;;;15.25;15.25;;;;;27.89;54.23;100989.25;146605;571;46018;-71
2022/07/03 00:07:04;;;;;;;;;14.75;14.25;;;;;27.80;54.30;100988.47;146609;575;45033;-70
2022/07/03 00:09:56;;;;;;;;;17.25;15.50;;;;;27.71;52.94;100990.38;146603;597;46010;-67
2022/07/03 00:12:54;;;;;;;;;15.00;15.00;;;;;27.68;52.96;100990.44;146603;577;46012;-67
2022/07/03 00:15:49;;;;;;;;;16.00;13.75;;;;;27.71;52.97;100985.06;146602;564;46008;-67
2022/07/03 00:18:41;;;;;;;;;16.75;16.00;;;;;26.71;53.44;100824.06;146604;579;46010;-71
2022/07/03 00:21:42;;;;;;;;;16.75;14.00;;;;;27.60;52.75;100994.09;146601;595;46916;-72
2022/07/03 00:25:01;;;;;;;;;16.50;16.50;;;;;27.45;52.15;100988.12;146606;619;46010;-70
2022/07/03 00:27:54;;;;;;;;;17.50;14.75;;;;;27.31;52.55;100978.50;146604;657;46008;-72
2022/07/03 00:30:52;;;;;;;;;16.50;14.25;;;;;27.28;53.57;100986.53;146604;583;46019;-69
2022/07/03 00:33:46;;;;;;;;;18.25;17.50;;;;;27.22;53.17;100983.09;146605;577;46008;-71
2022/07/03 00:36:42;;;;;;;;;13.75;11.25;;;;;27.11;53.23;100983.22;146602;609;46018;-71
2022/07/03 00:39:34;;;;;;;;;17.00;16.00;;;;;27.04;54.37;100985.06;146601;739;46019;-73
2022/07/03 00:42:26;;;;;;;;;15.50;14.00;;;;;26.99;53.57;100981.56;146601;570;46018;-74
2022/07/03 00:45:24;;;;;;;;;13.00;13.00;;;;;26.93;52.42;100977.19;146601;583;46018;-73
2022/07/03 00:48:19;;;;;;;;;15.50;15.50;;;;;26.92;52.85;100982.56;146604;604;46018;-73
2022/07/03 00:51:14;;;;;;;;;13.25;12.25;;;;;26.92;53.37;100980.78;146602;678;46008;-73
2022/07/03 00:54:08;;;;;;;;;14.00;13.25;;;;;26.94;52.38;100986.06;146602;604;46021;-70
2022/07/03 00:57:04;;;;;;;;;14.50;13.50;;;;;26.97;51.79;100991.34;146600;573;46010;-71
2022/07/03 00:59:57;;;;;;;;;15.25;14.00;;;;;27.00;51.74;100980.66;146603;588;46010;-72
2022/07/03 01:03:09;;;;;;;;;15.75;15.75;;;;;27.11;50.94;100985.87;146603;575;46018;-70
2022/07/03 01:06:07;;;;;;;;;17.75;15.00;;;;;27.20;51.37;100985.78;146608;618;46018;-68
2022/07/03 01:09:04;;;;;;;;;15.00;14.75;;;;;27.27;51.02;100978.59;146599;581;46010;-66
2022/07/03 01:12:19;;;;;;;;;18.00;15.50;;;;;27.26;50.28;100974.16;146604;604;46018;-72
2022/07/03 01:15:22;;;;;;;;;15.50;14.00;;;;;27.24;51.34;100973.31;146629;610;45023;-69
2022/07/03 01:18:45;;;;;;;;;18.00;15.00;;;;;26.03;50.66;100769.06;146630;569;45010;-69
2022/07/03 01:21:54;;;;;;;;;15.25;13.25;;;;;27.18;50.48;100968.94;146626;616;45018;-71
2022/07/03 01:25:37;;;;;;;;;16.75;15.25;;;;;26.09;50.47;100786.72;146631;703;45019;-70
2022/07/03 01:28:29;;;;;;;;;13.00;13.00;;;;;27.14;51.25;100969.88;146627;695;45010;-68
2022/07/03 01:31:25;;;;;;;;;19.75;16.50;;;;;27.14;51.04;100983.19;146631;626;45019;-70
2022/07/03 01:34:21;;;;;;;;;20.75;17.75;;;;;27.00;52.19;100979.78;146629;586;46009;-71
2022/07/03 01:37:18;;;;;;;;;18.00;18.00;;;;;26.81;52.94;100990.66;146630;598;45026;-71
2022/07/03 01:40:11;;;;;;;;;18.25;17.75;;;;;26.66;53.38;100977.50;146629;611;46008;-70
2022/07/03 01:43:07;;;;;;;;;15.25;15.25;;;;;26.55;53.31;100987.41;146631;564;45018;-71
2022/07/03 01:46:02;;;;;;;;;15.50;14.50;;;;;26.48;53.04;100987.47;146628;564;46008;-70
2022/07/03 01:48:57;;;;;;;;;16.50;15.50;;;;;26.47;53.12;100975.00;146629;699;45010;-70
2022/07/03 01:51:52;;;;;;;;;17.00;16.75;;;;;26.48;54.04;100986.56;146632;632;45019;-70
2022/07/03 01:54:48;;;;;;;;;16.50;13.75;;;;;26.38;54.37;100987.53;146627;563;45010;-71
2022/07/03 01:58:07;;;;;;;;;16.00;16.00;;;;;25.23;52.53;100806.09;146632;569;45010;-72
2022/07/03 02:01:26;;;;;;;;;17.00;16.50;;;;;26.37;52.99;100993.75;146630;572;45010;-70
2022/07/03 02:04:38;;;;;;;;;17.00;15.50;;;;;26.47;53.40;100998.06;146628;598;45018;-71
2022/07/03 02:08:17;;;;;;;;;15.50;14.50;;;;;24.56;52.46;100660.69;146632;587;45012;-72
2022/07/03 02:11:31;;;;;;;;;18.75;15.00;;;;;25.82;52.30;100875.53;146630;577;45018;-71
2022/07/03 02:14:28;;;;;;;;;19.00;16.75;;;;;26.58;53.09;100998.00;146608;592;45029;-71
2022/07/03 02:17:22;;;;;;;;;17.75;16.25;;;;;26.63;53.41;101004.16;146601;602;46018;-76
2022/07/03 02:20:15;;;;;;;;;15.50;14.25;;;;;26.68;53.51;100997.88;146605;613;46010;-71
2022/07/03 02:23:11;;;;;;;;;15.75;14.25;;;;;26.68;53.46;101005.88;146602;564;46011;-70
2022/07/03 02:26:07;;;;;;;;;18.00;15.00;;;;;26.64;53.95;101020.09;146605;587;46020;-68
2022/07/03 02:29:09;;;;;;;;;14.25;13.25;;;;;26.59;53.00;101013.06;146609;653;46019;-68
2022/07/03 02:32:10;;;;;;;;;19.75;17.50;;;;;26.57;52.99;101018.38;146604;588;46010;-69
2022/07/03 02:35:16;;;;;;;;;15.00;14.50;;;;;26.62;52.93;101018.34;146604;575;46008;-69
2022/07/03 02:38:22;;;;;;;;;15.00;14.00;;;;;26.62;53.69;101029.87;146602;582;46019;-67
2022/07/03 02:41:24;;;;;;;;;14.75;14.25;;;;;26.59;54.04;101031.69;146601;587;46018;-69
2022/07/03 02:44:35;;;;;;;;;17.00;14.00;;;;;26.56;54.10;101032.59;146604;587;46011;-69
2022/07/03 02:48:01;;;;;;;;;16.50;16.50;;;;;25.43;53.90;100847.53;146605;580;46008;-70
2022/07/03 02:50:58;;;;;;;;;15.75;15.75;;;;;26.50;54.86;101048.59;146605;570;46010;-70
2022/07/03 02:54:15;;;;;;;;;16.75;16.25;;;;;26.53;53.09;101040.59;146601;564;46019;-68
2022/07/03 02:57:12;;;;;;;;;17.25;17.25;;;;;26.60;54.19;101052.06;146604;614;46018;-67
2022/07/03 03:00:07;;;;;;;;;15.00;15.00;;;;;26.58;55.67;101057.41;146604;577;46009;-68
2022/07/03 03:03:01;;;;;;;;;16.25;14.75;;;;;26.51;56.04;101062.78;146602;645;46010;-69
2022/07/03 03:05:56;;;;;;;;;16.25;14.25;;;;;26.46;55.05;101063.66;146600;569;46008;-69
2022/07/03 03:09:01;;;;;;;;;16.50;15.50;;;;;26.47;54.40;101061.88;146604;658;46010;-68
2022/07/03 03:11:54;;;;;;;;;17.25;15.25;;;;;26.51;54.90;101066.31;146600;578;46008;-69
2022/07/03 03:14:48;;;;;;;;;16.00;12.25;;;;;26.55;55.25;101064.53;146600;585;46018;-68
2022/07/03 03:17:54;;;;;;;;;20.00;17.25;;;;;26.52;54.31;101064.56;146607;586;46008;-67
2022/07/03 03:20:54;;;;;;;;;15.50;15.50;;;;;26.47;54.58;101077.84;146604;595;46018;-68
2022/07/03 03:23:53;;;;;;;;;18.25;16.75;;;;;26.41;55.04;101084.09;146603;575;46008;-68
2022/07/03 03:26:45;;;;;;;;;18.25;16.75;;;;;25.48;56.17;100920.03;146603;604;46010;-69
2022/07/03 03:29:38;;;;;;;;;15.75;15.25;;;;;26.33;56.12;101080.63;146603;566;46008;-68
2022/07/03 03:32:32;;;;;;;;;15.00;15.00;;;;;26.24;55.87;101078.91;146604;584;46018;-68
2022/07/03 03:35:24;;;;;;;;;16.75;16.50;;;;;26.19;55.74;101088.69;146603;579;45043;-70
2022/07/03 03:38:16;;;;;;;;;14.75;13.50;;;;;26.17;56.19;101092.28;146605;588;46010;-68
2022/07/03 03:41:09;;;;;;;;;15.00;13.75;;;;;26.15;56.49;101094.94;146605;671;46008;-68
2022/07/03 03:44:01;;;;;;;;;14.75;14.50;;;;;26.12;55.88;101094.97;146603;619;46010;-67
2022/07/03 03:46:54;;;;;;;;;17.00;13.50;;;;;26.13;56.38;101093.19;146603;632;46010;-68
2022/07/03 03:49:46;;;;;;;;;18.50;15.50;;;;;26.17;56.97;101103.78;146605;593;46012;-68
2022/07/03 03:52:38;;;;;;;;;16.25;14.75;;;;;26.16;56.82;101106.44;146602;569;46027;-68
2022/07/03 03:55:31;;;;;;;;;13.75;13.75;;;;;26.11;56.61;101105.63;146603;563;46010;-68
2022/07/03 03:58:23;;;;;;;;;15.00;15.00;;;;;26.09;56.61;101100.28;146602;692;46019;-68
2022/07/03 04:01:16;;;;;;;;;17.00;15.00;;;;;26.15;55.92;101102.03;146606;623;46010;-68
2022/07/03 04:04:08;;;;;;;;;18.50;16.00;;;;;26.22;56.38;101101.09;146600;626;46018;-70
2022/07/03 04:07:00;;;;;;;;;15.25;14.25;;;;;26.30;56.36;101099.25;146605;675;45021;-68
2022/07/03 04:09:52;;;;;;;;;14.25;13.25;;;;;26.37;55.85;101105.41;146602;618;46018;-69
2022/07/03 04:12:44;;;;;;;;;17.50;15.75;;;;;26.50;55.74;101107.09;146606;580;46010;-69
2022/07/03 04:15:36;;;;;;;;;16.50;15.25;;;;;26.69;55.71;101110.47;146612;644;46018;-70
2022/07/03 04:18:29;;;;;;;;;16.50;15.00;;;;;26.93;55.56;101114.69;146614;666;45042;-69
2022/07/03 04:21:21;;;;;;;;;14.75;14.75;;;;;27.13;54.42;101102.06;146607;571;46008;-68
2022/07/03 04:24:13;;;;;;;;;11.25;11.25;;;;;27.24;53.48;101099.31;146615;574;46010;-71
2022/07/03 04:27:05;;;;;;;;;9.25;9.00;;;;;27.37;53.11;101094.72;146609;569;46917;-70
2022/07/03 04:29:57;;;;;;;;;14.50;13.75;;;;;27.48;52.88;101095.47;146616;604;46012;-72
2022/07/03 04:32:50;;;;;;;;;10.50;10.00;;;;;27.60;52.12;101105.97;146609;586;46008;-73
2022/07/03 04:35:42;;;;;;;;;13.50;13.25;;;;;27.77;52.70;101112.84;146613;585;45021;-73
2022/07/03 04:38:35;;;;;;;;;14.50;13.50;;;;;27.92;51.37;101120.66;146606;602;46018;-71
2022/07/03 04:41:27;;;;;;;;;14.00;12.50;;;;;28.09;52.43;101117.75;146612;644;46012;-68
2022/07/03 04:44:19;;;;;;;;;14.00;13.25;;;;;28.27;51.65;101119.25;146608;622;46018;-67
2022/07/03 04:47:12;;;;;;;;;18.50;17.50;;;;;28.42;50.83;101124.38;146610;606;46012;-67
2022/07/03 04:50:05;;;;;;;;;15.50;14.75;;;;;28.58;50.51;101129.47;146610;583;46008;-67
2022/07/03 04:52:56;;;;;;;;;14.25;13.75;;;;;28.75;49.93;101120.28;146609;630;46018;-70
2022/07/03 04:55:49;;;;;;;;;16.25;15.25;;;;;28.90;49.95;101119.09;146610;616;46018;-70
2022/07/03 04:58:40;;;;;;;;;13.25;12.25;;;;;29.00;49.10;101111.78;146615;620;46019;-73
2022/07/03 05:01:33;;;;;;;;;12.50;11.50;;;;;29.07;49.38;101129.53;146610;580;45018;-72
2022/07/03 05:04:24;;;;;;;;;13.50;11.25;;;;;28.87;50.03;101089.78;146610;613;46010;-71
2022/07/03 05:07:17;;;;;;;;;14.75;13.50;;;;;29.10;49.82;101133.94;146607;580;46018;-68
2022/07/03 05:10:09;;;;;;;;;13.75;13.75;;;;;29.13;49.53;101136.50;146608;573;46018;-70
2022/07/03 05:13:02;;;;;;;;;13.25;12.50;;;;;29.21;49.81;101130.12;146608;606;46019;-73
2022/07/03 05:15:53;;;;;;;;;13.75;12.50;;;;;29.36;48.36;101141.41;146608;694;46010;-72
2022/07/03 05:18:46;;;;;;;;;15.25;15.00;;;;;29.42;48.53;101146.63;146605;674;46018;-69
2022/07/03 05:21:38;;;;;;;;;13.25;13.25;;;;;29.48;48.67;101143.84;146603;636;46018;-71
2022/07/03 05:24:30;;;;;;;;;15.25;14.75;;;;;29.61;48.98;101139.16;146604;616;45042;-69
2022/07/03 05:27:22;;;;;;;;;15.50;14.50;;;;;29.80;47.77;101143.19;146605;639;46013;-69
2022/07/03 05:30:15;;;;;;;;;10.75;10.50;;;;;29.35;47.46;101031.03;146601;582;46010;-70
2022/07/03 05:33:07;;;;;;;;;12.25;12.00;;;;;30.13;47.44;101138.87;146602;577;46012;-69
2022/07/03 05:36:00;;;;;;;;;14.50;13.75;;;;;30.31;46.83;101134.94;146605;659;45019;-70
2022/07/03 05:42:02;;;;;;;;;15.25;13.00;;;;;30.70;45.31;101136.66;146604;595;46019;-69
2022/07/03 05:44:54;;;;;;;;;13.75;11.25;;;;;30.79;45.58;101139.13;146606;595;46010;-68
2022/07/03 05:47:47;;;;;;;;;13.75;13.25;;;;;30.79;45.91;101137.31;146601;646;46010;-68
2022/07/03 05:50:38;;;;;;;;;15.00;12.75;;;;;30.79;45.72;101142.69;146604;609;46019;-67
2022/07/03 05:53:31;;;;;;;;;12.50;10.50;;;;;30.80;45.10;101139.06;146609;616;46018;-69
2022/07/03 05:56:23;;;;;;;;;12.50;11.00;;;;;30.75;44.82;101140.97;146607;575;46010;-69
2022/07/03 05:59:15;;;;;;;;;10.75;9.25;;;;;30.68;45.02;101150.06;146608;571;46008;-68
2022/07/03 06:02:07;;;;;;;;;14.75;13.50;;;;;30.58;45.05;101146.75;146606;612;46010;-67
2022/07/03 06:04:59;;;;;;;;;11.00;10.00;;;;;30.57;44.04;101145.00;146607;659;45045;-67
2022/07/03 06:07:51;;;;;;;;;10.25;10.00;;;;;30.62;44.76;101136.84;146606;617;46018;-70
2022/07/03 06:10:43;;;;;;;;;13.50;10.75;;;;;30.69;44.71;101133.09;146607;685;46018;-70
2022/07/03 06:13:35;;;;;;;;;13.50;11.50;;;;;30.81;44.04;101143.53;146609;599;46011;-68
2022/07/03 06:16:27;;;;;;;;;10.00;10.00;;;;;30.94;44.13;101144.09;146605;727;47008;-68
2022/07/03 06:19:19;;;;;;;;;10.50;10.50;;;;;31.01;43.22;101152.81;146606;617;46010;-69
2022/07/03 06:22:11;;;;;;;;;14.00;13.50;;;;;30.21;43.56;101015.69;146602;578;46010;-68
2022/07/03 06:25:04;;;;;;;;;11.75;11.00;;;;;31.05;43.72;101154.50;146609;664;46018;-68
2022/07/03 06:27:56;;;;;;;;;9.25;9.25;;;;;30.96;41.77;101150.25;146611;578;46008;-69
2022/07/03 06:30:48;;;;;;;;;11.00;9.25;;;;;30.83;43.50;101151.50;146610;591;45041;-71
2022/07/03 06:33:40;;;;;;;;;10.25;10.25;;;;;30.78;43.52;101142.69;146602;612;46018;-72
2022/07/03 06:36:33;;;;;;;;;12.25;11.75;;;;;30.81;42.62;101156.91;146605;651;46010;-69
2022/07/03 06:39:25;;;;;;;;;9.00;8.00;;;;;30.83;43.21;101157.72;146609;724;46018;-69
2022/07/03 06:42:17;;;;;;;;;8.75;8.75;;;;;30.92;42.64;101158.44;146614;615;45021;-68
2022/07/03 06:45:10;;;;;;;;;12.25;11.25;;;;;31.02;42.32;101155.44;146606;589;46018;-69
2022/07/03 06:48:02;;;;;;;;;9.75;9.75;;;;;31.14;42.85;101148.87;146609;585;46018;-69
2022/07/03 06:50:54;;;;;;;;;10.50;9.50;;;;;31.28;40.67;101148.53;146610;647;46019;-69
2022/07/03 06:53:47;;;;;;;;;10.00;9.00;;;;;31.32;41.48;101146.63;146609;584;46010;-67
2022/07/03 06:56:39;;;;;;;;;10.75;10.25;;;;;31.34;41.98;101143.03;146607;564;46018;-67
2022/07/03 06:59:30;;;;;;;;;12.50;11.00;;;;;31.42;41.23;101145.47;146608;673;46018;-72
2022/07/03 07:02:23;;;;;;;;;12.00;11.00;;;;;31.46;41.90;101144.44;146604;602;46018;-70
2022/07/03 07:05:15;;;;;;;;;12.00;11.75;;;;;30.64;41.75;100995.81;146610;671;46018;-76
2022/07/03 07:08:07;;;;;;;;;9.75;9.25;;;;;30.71;41.96;100999.22;146612;613;46008;-71
2022/07/03 07:11:00;;;;;;;;;12.75;10.50;;;;;31.57;41.48;101133.44;146607;718;46018;-70
2022/07/03 07:13:52;;;;;;;;;91.25;85.00;;;;;31.55;41.88;101130.78;146602;581;46018;-70
2022/07/03 07:16:44;;;;;;;;;100.67;88.33;;;;;31.53;41.29;101129.97;146604;584;46018;-70
2022/07/03 07:19:36;;;;;;;;;156.75;137.00;;;;;31.52;41.31;101134.44;146610;661;46008;-73
2022/07/03 07:22:29;;;;;;;;;341.33;266.00;;;;;31.51;41.18;101124.63;146608;569;46010;-70
2022/07/03 07:25:21;;;;;;;;;288.75;240.00;;;;;31.53;41.53;101127.28;146610;635;46008;-71
2022/07/03 07:28:13;;;;;;;;;103.00;82.33;;;;;31.63;41.12;101120.72;146611;619;46012;-71
2022/07/03 07:31:06;;;;;;;;;67.25;51.75;;;;;31.70;40.67;101124.09;146605;585;46010;-71
2022/07/03 07:33:57;;;;;;;;;251.60;203.60;;;;;31.72;40.48;101128.50;146602;641;46012;-72
2022/07/03 07:36:50;;;;;;;;;74.75;62.00;;;;;31.72;40.19;101125.81;146608;653;46018;-71
2022/07/03 07:39:41;;;;;;;;;48.25;37.50;;;;;31.72;40.30;101133.84;146610;647;46012;-71
2022/07/03 07:42:34;;;;;;;;;5.75;5.50;;;;;31.77;40.38;101133.69;146612;666;46018;-78
2022/07/03 07:45:26;;;;;;;;;9.75;9.75;;;;;31.78;39.23;101132.78;146607;611;46020;-74
2022/07/03 07:48:18;;;;;;;;;13.25;11.00;;;;;31.77;40.52;101133.69;146609;657;46019;-75
2022/07/03 07:51:10;;;;;;;;;13.25;11.00;;;;;31.80;39.99;101132.72;146608;619;46012;-75
2022/07/03 07:54:03;;;;;;;;;9.50;8.50;;;;;31.81;39.81;101138.06;146607;579;46018;-78
2022/07/03 07:56:54;;;;;;;;;11.25;10.25;;;;;31.82;39.56;101137.12;146606;583;46012;-76
2022/07/03 07:59:46;;;;;;;;;12.50;11.75;;;;;31.89;38.90;101135.16;146603;611;46008;-74
2022/07/03 08:05:48;;;;;;;;;19.25;16.25;;;;;32.03;36.29;101118.66;146605;605;46018;-74
2022/07/03 08:08:40;;;;;;;;;8.50;7.50;;;;;32.18;34.75;101135.16;146614;658;45020;-74
2022/07/03 08:11:32;;;;;;;;;9.25;8.75;;;;;32.20;39.65;101124.34;146611;581;46019;-75
2022/07/03 08:14:25;;;;;;;;;32.25;26.25;;;;;32.19;39.36;101126.16;146610;564;46010;-76
2022/07/03 08:17:17;;;;;;;;;11.00;11.00;;;;;32.23;39.14;101126.94;146607;580;46008;-75
2022/07/03 08:20:10;;;;;;;;;11.50;9.75;;;;;32.34;39.85;101129.28;146611;629;46010;-73
2022/07/03 08:23:02;;;;;;;;;10.50;9.25;;;;;32.44;37.67;101138.81;146610;576;46008;-74
2022/07/03 08:25:54;;;;;;;;;8.75;8.25;;;;;32.60;35.75;101140.06;146616;597;46011;-74
2022/07/03 08:28:46;;;;;;;;;8.25;8.00;;;;;32.71;38.04;101139.69;146610;718;46918;-74
2022/07/03 08:31:39;;;;;;;;;8.75;8.75;;;;;32.72;38.06;101130.69;146615;624;46010;-74
2022/07/03 08:34:31;;;;;;;;;7.50;7.50;;;;;32.69;38.51;101141.53;146614;598;46019;-75
2022/07/03 08:37:23;;;;;;;;;8.00;8.00;;;;;32.67;38.93;101141.59;146611;671;46018;-73
2022/07/03 08:40:17;;;;;;;;;9.00;8.00;;;;;32.67;38.31;101149.63;146615;578;46008;-75
2022/07/03 08:43:09;;;;;;;;;8.50;7.75;;;;;32.63;38.50;101137.25;146610;638;46010;-76
2022/07/03 08:46:03;;;;;;;;;7.50;7.50;;;;;32.57;39.61;101140.16;146610;706;46008;-75
2022/07/03 08:48:57;;;;;;;;;9.00;8.00;;;;;32.52;38.84;101139.41;146611;574;46010;-76
2022/07/03 08:51:50;;;;;;;;;11.75;10.00;;;;;32.47;36.83;101144.09;146610;569;46008;-76
2022/07/03 08:54:42;;;;;;;;;8.75;8.75;;;;;32.38;37.56;101107.66;146608;631;46010;-74
2022/07/03 08:57:42;;;;;;;;;9.50;9.50;;;;;32.59;38.33;101122.19;146606;569;46919;-76
2022/07/03 09:00:35;;;;;;;;;10.00;9.00;;;;;32.68;37.41;101123.69;146613;713;46020;-77
2022/07/03 09:03:29;;;;;;;;;9.25;9.00;;;;;32.80;36.41;101125.06;146614;593;46018;-75
2022/07/03 09:06:21;;;;;;;;;11.00;8.50;;;;;32.94;36.32;101121.91;146608;666;46010;-74
2022/07/03 09:09:14;;;;;;;;;9.00;7.75;;;;;32.76;36.83;101077.75;146610;606;46018;-76
2022/07/03 09:12:06;;;;;;;;;9.00;9.00;;;;;33.03;35.33;101113.53;146608;712;46010;-75
2022/07/03 09:14:58;;;;;;;;;7.50;6.25;;;;;33.00;34.45;101122.59;146636;564;45018;-76
2022/07/03 09:18:04;;;;;;;;;6.50;6.25;;;;;32.98;37.42;101110.12;146637;564;45019;-74
2022/07/03 09:21:08;;;;;;;;;11.00;10.00;;;;;32.96;37.06;101115.56;146637;587;46008;-75
2022/07/03 09:24:08;;;;;;;;;8.25;7.50;;;;;32.95;35.37;101107.53;146636;720;45018;-76
2022/07/03 09:27:00;;;;;;;;;8.50;8.25;;;;;32.98;34.63;101111.00;146635;671;46008;-75
2022/07/03 09:30:02;;;;;;;;;9.00;9.00;;;;;32.91;35.26;101095.16;146640;569;45012;-77
2022/07/03 09:32:55;;;;;;;;;7.25;7.00;;;;;32.94;34.54;101103.97;146641;728;45018;-73
2022/07/03 09:35:47;;;;;;;;;7.75;7.75;;;;;32.89;34.60;101095.19;146642;600;45010;-75
2022/07/03 09:38:48;;;;;;;;;9.25;8.75;;;;;33.00;36.17;101095.72;146639;617;45011;-76
2022/07/03 09:42:02;;;;;;;;;9.75;9.75;;;;;33.06;36.18;101100.88;146638;605;45020;-74
2022/07/03 09:44:58;;;;;;;;;8.00;7.75;;;;;33.12;34.42;101097.09;146640;572;45010;-75
2022/07/03 09:47:50;;;;;;;;;11.25;9.25;;;;;33.12;34.12;101097.09;146634;600;45011;-75
2022/07/03 09:50:42;;;;;;;;;8.75;8.25;;;;;33.16;33.68;101093.34;146633;673;46018;-74
2022/07/03 09:54:02;;;;;;;;;10.00;8.00;;;;;33.20;36.53;101089.59;146641;708;45010;-76
2022/07/03 09:56:55;;;;;;;;;8.50;8.00;;;;;33.16;33.73;101097.84;146636;628;45019;-70
2022/07/03 09:59:46;;;;;;;;;9.50;9.00;;;;;33.07;34.32;101091.00;146640;569;45010;-71
2022/07/03 10:02:39;;;;;;;;;7.00;7.00;;;;;33.03;34.85;101087.56;146630;610;45019;-70
2022/07/03 10:05:42;;;;;;;;;9.00;9.00;;;;;33.07;35.52;101085.63;146634;569;46010;-73
2022/07/03 10:08:35;;;;;;;;;7.00;7.00;;;;;33.15;34.76;101079.97;146640;626;45010;-69
2022/07/03 10:11:27;;;;;;;;;7.25;7.25;;;;;33.16;32.39;101087.09;146644;600;45010;-68
2022/07/03 10:14:22;;;;;;;;;7.25;7.00;;;;;33.11;33.29;101073.81;146621;573;46018;-70
2022/07/03 10:17:15;;;;;;;;;8.00;6.75;;;;;33.15;33.83;101083.53;146613;613;46010;-70
2022/07/03 10:20:07;;;;;;;;;5.75;5.75;;;;;33.14;32.66;101084.47;146612;719;46008;-70
2022/07/03 10:22:59;;;;;;;;;10.75;8.75;;;;;33.06;33.10;101054.34;146614;577;46018;-78
2022/07/03 10:25:52;;;;;;;;;7.75;7.75;;;;;33.24;32.09;101071.56;146611;567;46019;-76
2022/07/03 10:28:45;;;;;;;;;7.75;7.75;;;;;33.21;33.15;101071.66;146614;658;46018;-77
2022/07/03 10:31:38;;;;;;;;;9.00;8.75;;;;;33.16;32.97;101071.84;146614;710;46009;-75
2022/07/03 10:34:32;;;;;;;;;9.25;8.00;;;;;33.09;33.46;101070.34;146615;704;46010;-75
2022/07/03 10:37:27;;;;;;;;;7.00;7.00;;;;;32.98;34.61;101059.09;146611;716;46008;-73
2022/07/03 10:47:52;;;;;;;;;8.50;8.50;;;;;33.20;32.51;101051.13;146616;565;46011;-76
2022/07/03 10:50:45;;;;;;;;;8.25;8.25;;;;;33.33;32.99;101047.03;146613;606;46010;-77
2022/07/03 10:53:37;;;;;;;;;6.50;6.50;;;;;33.49;34.01;101042.81;146613;696;46010;-75
2022/07/03 10:56:29;;;;;;;;;8.25;7.50;;;;;33.65;31.06;101043.13;146611;637;46010;-79
2022/07/03 10:59:21;;;;;;;;;10.50;9.50;;;;;33.76;32.15;101034.63;146612;632;46010;-77
2022/07/03 11:02:52;;;;;;;;;9.00;9.00;;;;;33.84;29.63;101032.50;146607;684;46008;-77
2022/07/03 11:05:44;;;;;;;;;8.00;7.00;;;;;33.85;32.58;101028.84;146611;686;46010;-76
2022/07/03 11:09:14;;;;;;;;;8.50;8.50;;;;;32.00;33.80;100725.37;146610;716;46019;-76
2022/07/03 11:12:07;;;;;;;;;10.25;9.50;;;;;33.75;31.75;101022.12;146612;668;46010;-79
2022/07/03 11:15:32;;;;;;;;;10.75;9.75;;;;;32.84;32.57;100859.03;146630;692;45027;-77
2022/07/03 11:18:36;;;;;;;;;8.00;8.00;;;;;33.86;32.85;101017.16;146635;666;45021;-77
2022/07/03 11:21:37;;;;;;;;;11.00;11.00;;;;;33.95;33.12;101015.91;146634;649;46008;-76
2022/07/03 11:24:41;;;;;;;;;7.00;6.00;;;;;33.91;32.49;101012.47;146637;635;45019;-77
2022/07/03 11:27:39;;;;;;;;;8.50;8.50;;;;;33.86;33.24;101011.78;146635;656;46010;-76
2022/07/03 11:30:31;;;;;;;;;10.00;8.00;;;;;33.90;30.83;101015.25;146640;575;45010;-73
2022/07/03 11:34:02;;;;;;;;;7.75;7.00;;;;;33.05;33.67;100869.88;146634;626;45019;-77
2022/07/03 11:36:54;;;;;;;;;6.75;6.75;;;;;33.85;31.08;101012.72;146640;609;45026;-75
2022/07/03 11:39:48;;;;;;;;;9.00;9.00;;;;;33.87;31.65;101007.28;146636;571;45917;-75
2022/07/03 11:42:40;;;;;;;;;8.00;8.00;;;;;33.95;31.34;101008.69;146640;569;45010;-75
2022/07/03 11:45:34;;;;;;;;;8.25;8.25;;;;;34.05;30.97;101009.22;146642;610;45019;-75
2022/07/03 11:48:28;;;;;;;;;9.00;8.25;;;;;34.10;30.92;101000.97;146635;580;46008;-75
2022/07/03 11:51:21;;;;;;;;;9.00;7.00;;;;;34.10;31.02;101000.97;146639;639;45010;-76
2022/07/03 11:54:13;;;;;;;;;7.00;7.00;;;;;34.06;31.04;100989.47;146640;588;46008;-76
2022/07/03 11:57:05;;;;;;;;;8.00;8.00;;;;;34.07;32.16;101001.97;146635;653;46010;-76
2022/07/03 12:00:08;;;;;;;;;9.00;8.75;;;;;34.05;31.93;100993.06;146640;563;45020;-75
2022/07/03 12:03:01;;;;;;;;;11.00;7.75;;;;;33.93;33.69;100991.78;146635;610;45918;-77
2022/07/03 12:06:03;;;;;;;;;7.50;7.50;;;;;33.88;33.91;100991.06;146635;677;45010;-75
2022/07/03 12:08:55;;;;;;;;;9.25;8.25;;;;;33.94;31.51;100993.50;146635;606;46008;-77
2022/07/03 12:12:11;;;;;;;;;10.25;10.25;;;;;32.96;33.76;100828.12;146633;599;45010;-76
2022/07/03 12:15:03;;;;;;;;;7.75;7.75;;;;;33.88;32.63;100993.75;146611;569;46018;-76
2022/07/03 12:17:55;;;;;;;;;10.00;10.00;;;;;33.85;31.61;100980.44;146611;591;46010;-76
2022/07/03 12:20:48;;;;;;;;;4.75;4.75;;;;;33.85;32.45;100988.50;146615;672;46008;-75
2022/07/03 12:23:59;;;;;;;;;9.75;9.75;;;;;33.84;32.25;100989.47;146611;564;46018;-77
2022/07/03 12:26:52;;;;;;;;;6.25;6.00;;;;;33.80;30.92;100977.97;146615;672;45018;-75
2022/07/03 12:29:44;;;;;;;;;9.25;8.00;;;;;33.78;31.41;100981.66;146611;611;46018;-74
2022/07/03 12:32:37;;;;;;;;;9.25;9.25;;;;;33.78;31.77;100982.50;146613;570;46018;-75
2022/07/03 12:35:31;;;;;;;;;8.00;8.00;;;;;33.81;30.76;100970.75;146614;635;46018;-76
2022/07/03 12:38:35;;;;;;;;;7.50;6.75;;;;;33.94;31.38;100974.69;146613;647;46019;-77
2022/07/03 12:41:28;;;;;;;;;5.25;5.25;;;;;34.08;29.97;100965.16;146614;682;46010;-75
2022/07/03 12:44:21;;;;;;;;;7.75;7.75;;;;;34.12;31.54;100966.81;146616;675;45919;-77
2022/07/03 12:47:12;;;;;;;;;8.25;8.25;;;;;34.13;30.67;100963.16;146613;656;46019;-75
2022/07/03 12:50:07;;;;;;;;;8.25;8.00;;;;;34.09;30.54;100966.94;146611;617;46018;-77
2022/07/03 12:53:00;;;;;;;;;9.00;9.00;;;;;34.09;29.59;100958.87;146613;612;46011;-75
2022/07/03 12:55:52;;;;;;;;;8.75;8.75;;;;;34.20;29.05;100952.06;146611;693;46018;-76
2022/07/03 13:02:09;;;;;;;;;4.50;4.25;;;;;34.58;31.07;100949.53;146613;641;46008;-75
2022/07/03 13:05:03;;;;;;;;;8.25;7.00;;;;;34.56;29.53;100932.56;146615;605;46018;-76
2022/07/03 13:07:58;;;;;;;;;7.75;7.00;;;;;34.52;29.63;100932.72;146614;626;46019;-74
2022/07/03 13:11:02;;;;;;;;;8.50;6.00;;;;;34.54;29.75;100936.28;146613;583;46019;-77
2022/07/03 13:13:55;;;;;;;;;6.00;6.00;;;;;34.31;26.38;100921.13;146614;680;46018;-77
2022/07/03 13:16:55;;;;;;;;;6.75;6.75;;;;;34.37;25.83;100943.25;146614;607;46019;-76
2022/07/03 13:19:47;;;;;;;;;5.75;5.75;;;;;34.38;27.77;100936.06;146616;579;45043;-78
2022/07/03 13:22:39;;;;;;;;;6.25;6.25;;;;;34.44;30.69;100920.50;146619;615;45021;-80
2022/07/03 13:25:32;;;;;;;;;9.75;7.75;;;;;34.45;33.58;100943.78;146613;577;46008;-71
2022/07/03 13:28:24;;;;;;;;;7.75;7.75;;;;;34.36;31.70;100928.03;146615;699;46020;-72
2022/07/03 13:31:16;;;;;;;;;8.25;7.25;;;;;34.38;28.43;100936.91;146612;564;46917;-70
2022/07/03 13:34:09;;;;;;;;;8.75;8.75;;;;;34.45;31.51;100927.63;146614;686;46018;-72
2022/07/03 13:37:01;;;;;;;;;7.50;7.00;;;;;34.49;30.44;100931.94;146613;579;46019;-72
2022/07/03 13:39:53;;;;;;;;;5.75;5.75;;;;;34.47;29.74;100932.94;146614;700;46018;-74
2022/07/03 13:42:45;;;;;;;;;10.00;9.00;;;;;34.42;32.16;100916.97;146611;611;46008;-71